createdAt,value
2018-09-17T00:01:33.705Z,97.00
2018-09-17T00:04:02.029Z,97.00
2018-09-17T00:06:30.336Z,97.00
2018-09-17T00:08:58.636Z,97.00
2018-09-17T00:11:28.148Z,97.00
2018-09-17T00:13:56.509Z,97.00
2018-09-17T00:16:24.847Z,97.00
2018-09-17T00:18:53.268Z,97.00
2018-09-17T00:21:21.580Z,97.00
2018-09-17T00:23:49.897Z,97.00
2018-09-17T00:26:18.515Z,97.00
2018-09-17T00:28:46.874Z,97.00
2018-09-17T00:31:15.192Z,97.00
2018-09-17T00:33:43.677Z,97.00
2018-09-17T00:36:12.135Z,97.00
2018-09-17T00:38:40.505Z,97.00
2018-09-17T00:41:08.832Z,97.00
2018-09-17T00:43:37.156Z,97.00
2018-09-17T00:46:06.326Z,97.00
2018-09-17T00:48:34.669Z,97.00
2018-09-17T00:51:03.488Z,97.00
2018-09-17T00:53:31.801Z,97.00
2018-09-17T00:56:00.263Z,97.00
2018-09-17T00:58:28.608Z,97.00
2018-09-17T01:00:57.367Z,97.00
2018-09-17T01:03:25.840Z,97.00
2018-09-17T01:05:54.176Z,97.00
2018-09-17T01:08:22.532Z,97.00
2018-09-17T01:10:50.959Z,97.00
2018-09-17T01:13:19.282Z,97.00
2018-09-17T01:15:47.800Z,97.00
2018-09-17T01:18:16.589Z,97.00
2018-09-17T01:20:44.973Z,97.00
2018-09-17T01:23:13.383Z,97.00
2018-09-17T01:25:41.753Z,97.00
2018-09-17T01:28:10.184Z,97.00
2018-09-17T01:30:38.573Z,97.00
2018-09-17T01:33:06.887Z,97.00
2018-09-17T01:35:35.396Z,97.00
2018-09-17T01:38:04.161Z,97.00
2018-09-17T01:40:32.471Z,97.00
2018-09-17T01:43:00.792Z,97.00
2018-09-17T01:45:29.130Z,97.00
2018-09-17T01:47:57.800Z,97.00
2018-09-17T01:50:26.137Z,97.00
2018-09-17T01:52:54.417Z,97.00
2018-09-17T01:55:22.761Z,97.00
2018-09-17T01:57:51.084Z,97.00
2018-09-17T02:00:19.732Z,97.00
2018-09-17T02:02:48.044Z,97.00
2018-09-17T02:05:16.343Z,97.00
2018-09-17T02:07:44.708Z,97.00
2018-09-17T02:10:13.241Z,97.00
2018-09-17T02:12:41.580Z,97.00
2018-09-17T02:15:09.944Z,97.00
2018-09-17T02:17:38.312Z,97.00
2018-09-17T02:20:06.799Z,97.00
2018-09-17T02:22:35.142Z,97.00
2018-09-17T02:25:03.482Z,97.00
2018-09-17T02:27:31.844Z,97.00
2018-09-17T02:30:00.222Z,97.00
2018-09-17T02:32:28.568Z,97.00
2018-09-17T02:34:56.942Z,97.00
2018-09-17T02:37:25.260Z,97.00
2018-09-17T02:39:53.554Z,97.00
2018-09-17T02:42:22.053Z,97.00
2018-09-17T02:44:50.357Z,97.00
2018-09-17T02:47:18.775Z,97.00
2018-09-17T02:49:47.149Z,97.00
2018-09-17T02:52:17.244Z,97.00
2018-09-17T02:54:45.871Z,97.00
2018-09-17T02:57:14.289Z,97.00
2018-09-17T02:59:42.724Z,97.00
2018-09-17T03:02:11.322Z,97.00
2018-09-17T03:04:39.825Z,97.00
2018-09-17T03:07:08.207Z,97.00
2018-09-17T03:09:36.535Z,97.00
2018-09-17T03:12:04.860Z,97.00
2018-09-17T03:14:33.271Z,97.00
2018-09-17T03:17:10.926Z,97.00
2018-09-17T03:19:39.975Z,97.00
2018-09-17T03:22:08.880Z,97.00
2018-09-17T03:24:37.434Z,97.00
2018-09-17T03:27:05.850Z,97.00
2018-09-17T03:29:34.271Z,97.00
2018-09-17T03:32:02.853Z,97.00
2018-09-17T03:34:31.284Z,97.00
2018-09-17T03:36:59.655Z,97.00
2018-09-17T03:39:28.043Z,97.00
2018-09-17T03:41:56.434Z,97.00
2018-09-17T03:44:25.782Z,97.00
2018-09-17T03:46:54.184Z,97.00
2018-09-17T03:49:22.713Z,97.00
2018-09-17T03:51:51.952Z,97.00
2018-09-17T03:54:20.284Z,97.00
2018-09-17T03:56:48.682Z,97.00
2018-09-17T03:59:17.046Z,97.00
2018-09-17T04:01:45.548Z,97.00
2018-09-17T04:04:13.865Z,97.00
2018-09-17T04:06:42.211Z,97.00
2018-09-17T04:09:11.389Z,97.00
2018-09-17T04:11:40.352Z,97.00
2018-09-17T04:14:08.679Z,97.00
2018-09-17T04:16:37.543Z,97.00
2018-09-17T04:19:05.915Z,97.00
2018-09-17T04:21:34.294Z,97.00
2018-09-17T04:24:02.612Z,97.00
2018-09-17T04:26:30.944Z,97.00
2018-09-17T04:28:59.267Z,97.00
2018-09-17T04:31:27.567Z,97.00
2018-09-17T04:33:55.887Z,97.00
2018-09-17T04:36:24.238Z,97.00
2018-09-17T04:38:52.632Z,97.00
2018-09-17T04:41:20.982Z,97.00
2018-09-17T04:43:49.304Z,97.00
2018-09-17T04:46:17.686Z,97.00
2018-09-17T04:48:46.061Z,97.00
2018-09-17T04:51:14.472Z,97.00
2018-09-17T04:53:42.806Z,97.00
2018-09-17T04:56:11.136Z,97.00
2018-09-17T04:58:39.479Z,97.00
2018-09-17T05:01:07.846Z,97.00
2018-09-17T05:03:36.729Z,97.00
2018-09-17T05:06:12.571Z,97.00
2018-09-17T05:08:40.890Z,97.00
2018-09-17T05:11:09.221Z,97.00
2018-09-17T05:13:37.540Z,97.00
2018-09-17T05:16:05.912Z,97.00
2018-09-17T05:18:34.268Z,97.00
2018-09-17T05:21:02.672Z,97.00
2018-09-17T05:23:30.970Z,97.00
2018-09-17T05:25:59.302Z,97.00
2018-09-17T05:28:27.664Z,97.00
2018-09-17T05:30:56.143Z,97.00
2018-09-17T05:33:24.755Z,97.00
2018-09-17T05:35:53.146Z,97.00
2018-09-17T05:38:21.481Z,97.00
2018-09-17T05:40:49.825Z,97.00
2018-09-17T05:43:18.307Z,97.00
2018-09-17T05:45:53.153Z,97.00
2018-09-17T05:48:21.529Z,97.00
2018-09-17T05:50:49.898Z,97.00
2018-09-17T05:53:18.270Z,97.00
2018-09-17T05:55:46.596Z,97.00
2018-09-17T05:58:14.995Z,97.00
2018-09-17T06:00:43.337Z,97.00
2018-09-17T06:03:11.665Z,97.00
2018-09-17T06:05:40.079Z,97.00
2018-09-17T06:08:08.346Z,97.00
2018-09-17T06:10:36.694Z,97.00
2018-09-17T06:13:05.129Z,97.00
2018-09-17T06:15:33.576Z,97.00
2018-09-17T06:18:02.156Z,97.00
2018-09-17T06:20:31.351Z,97.00
2018-09-17T06:22:59.673Z,97.00
2018-09-17T06:25:27.984Z,97.00
2018-09-17T06:27:56.326Z,97.00
2018-09-17T06:30:24.663Z,97.00
2018-09-17T06:32:52.969Z,97.00
2018-09-17T06:35:21.366Z,97.00
2018-09-17T06:37:49.690Z,97.00
2018-09-17T06:40:18.257Z,97.00
2018-09-17T06:42:46.649Z,97.00
2018-09-17T06:45:15.044Z,97.00
2018-09-17T06:47:43.372Z,97.00
2018-09-17T06:50:11.704Z,97.00
2018-09-17T06:52:40.236Z,97.00
2018-09-17T06:55:08.770Z,97.00
2018-09-17T06:57:37.089Z,97.00
2018-09-17T07:00:05.547Z,97.00
2018-09-17T07:02:33.908Z,97.00
2018-09-17T07:05:02.221Z,97.00
2018-09-17T07:07:30.572Z,97.00
2018-09-17T07:09:58.917Z,97.00
2018-09-17T07:12:27.295Z,97.00
2018-09-17T07:14:55.615Z,97.00
2018-09-17T07:17:23.929Z,97.00
2018-09-17T07:19:54.439Z,97.00
2018-09-17T07:22:22.862Z,97.00
2018-09-17T07:24:51.205Z,97.00
2018-09-17T07:27:19.537Z,97.00
2018-09-17T07:29:47.885Z,97.00
2018-09-17T07:32:16.196Z,97.00
2018-09-17T07:34:44.535Z,97.00
2018-09-17T07:37:12.893Z,97.00
2018-09-17T07:39:41.230Z,97.00
2018-09-17T07:42:09.572Z,97.00
2018-09-17T07:44:37.912Z,96.70
2018-09-17T07:47:06.265Z,95.60
2018-09-17T07:49:34.604Z,94.00
2018-09-17T07:52:03.136Z,94.20
2018-09-17T07:54:31.476Z,93.70
2018-09-17T07:57:00.150Z,93.00
2018-09-17T07:59:28.865Z,92.30
2018-09-17T08:01:59.751Z,91.40
2018-09-17T08:04:31.544Z,89.90
2018-09-17T08:07:02.503Z,89.10
2018-09-17T08:09:33.771Z,88.20
2018-09-17T08:12:04.874Z,87.70
2018-09-17T08:14:35.936Z,87.10
2018-09-17T08:17:07.616Z,86.70
2018-09-17T08:19:39.168Z,86.90
2018-09-17T08:22:10.187Z,85.90
2018-09-17T08:24:41.196Z,85.60
2018-09-17T08:27:12.339Z,84.80
2018-09-17T08:29:43.102Z,83.80
2018-09-17T08:32:14.151Z,83.00
2018-09-17T08:34:45.668Z,82.80
2018-09-17T08:37:16.637Z,82.20
2018-09-17T08:39:48.290Z,81.80
2018-09-17T08:42:19.600Z,80.40
2018-09-17T08:44:48.028Z,79.60
2018-09-17T08:47:16.353Z,78.80
2018-09-17T08:49:51.223Z,78.50
2018-09-17T08:52:19.619Z,78.40
2018-09-17T08:54:53.342Z,75.60
2018-09-17T08:57:27.005Z,75.60
2018-09-17T09:00:00.724Z,75.00
2018-09-17T09:02:34.410Z,74.00
2018-09-17T09:05:09.011Z,73.90
2018-09-17T09:07:42.692Z,73.10
2018-09-17T09:10:16.443Z,74.10
2018-09-17T09:12:51.015Z,74.40
2018-09-17T09:15:22.937Z,74.50
2018-09-17T09:17:51.648Z,74.60
2018-09-17T09:20:19.995Z,74.40
2018-09-17T09:22:48.349Z,74.10
2018-09-17T09:25:16.678Z,74.70
2018-09-17T09:27:45.057Z,74.10
2018-09-17T09:30:13.397Z,74.30
2018-09-17T09:32:41.799Z,72.50
2018-09-17T09:35:11.333Z,72.10
2018-09-17T09:37:39.631Z,71.30
2018-09-17T09:40:08.018Z,70.80
2018-09-17T09:42:36.356Z,70.80
2018-09-17T09:45:04.705Z,70.20
2018-09-17T09:47:33.014Z,69.80
2018-09-17T09:50:01.332Z,70.30
2018-09-17T09:52:29.646Z,70.40
2018-09-17T09:54:57.997Z,71.20
2018-09-17T09:57:26.310Z,70.80
2018-09-17T09:59:56.653Z,70.50
2018-09-17T10:02:35.980Z,70.20
2018-09-17T10:05:07.116Z,69.10
2018-09-17T10:07:37.886Z,69.00
2018-09-17T10:10:13.456Z,68.80
2018-09-17T10:12:48.840Z,68.60
2018-09-17T10:15:24.024Z,68.80
2018-09-17T10:17:59.475Z,69.30
2018-09-17T10:20:30.170Z,68.90
2018-09-17T10:23:01.135Z,68.80
2018-09-17T10:25:31.597Z,69.40
2018-09-17T10:27:59.977Z,68.50
2018-09-17T10:30:28.286Z,68.10
2018-09-17T10:32:56.612Z,68.30
2018-09-17T10:35:24.900Z,68.80
2018-09-17T10:37:53.229Z,68.70
2018-09-17T10:40:21.617Z,69.10
2018-09-17T10:42:49.922Z,69.30
2018-09-17T10:45:18.266Z,69.80
2018-09-17T10:47:46.711Z,68.90
2018-09-17T10:50:15.067Z,68.70
2018-09-17T10:52:43.528Z,68.50
2018-09-17T10:55:11.834Z,68.50
2018-09-17T10:57:40.159Z,68.70
2018-09-17T11:00:08.560Z,68.70
2018-09-17T11:02:36.873Z,68.80
2018-09-17T11:05:05.191Z,69.00
2018-09-17T11:07:33.520Z,68.70
2018-09-17T11:10:01.853Z,68.40
2018-09-17T11:12:30.180Z,67.70
2018-09-17T11:14:58.576Z,67.50
2018-09-17T11:17:26.969Z,67.10
2018-09-17T11:19:55.275Z,67.90
2018-09-17T11:22:23.608Z,66.90
2018-09-17T11:24:51.954Z,66.60
2018-09-17T11:27:20.269Z,66.80
2018-09-17T11:29:48.669Z,66.70
2018-09-17T11:32:17.000Z,66.20
2018-09-17T11:34:45.332Z,66.80
2018-09-17T11:37:13.654Z,66.30
2018-09-17T11:39:42.023Z,66.50
2018-09-17T11:42:10.391Z,66.60
2018-09-17T11:44:38.749Z,66.60
2018-09-17T11:47:07.142Z,66.60
2018-09-17T11:49:35.578Z,66.10
2018-09-17T11:52:04.091Z,65.70
2018-09-17T11:54:32.420Z,66.30
2018-09-17T11:57:00.859Z,65.20
2018-09-17T11:59:29.194Z,64.70
2018-09-17T12:02:02.683Z,65.50
2018-09-17T12:04:30.975Z,64.90
2018-09-17T12:07:04.668Z,64.60
2018-09-17T12:09:33.023Z,65.20
2018-09-17T12:12:01.337Z,65.00
2018-09-17T12:14:29.682Z,64.70
2018-09-17T12:16:58.147Z,64.40
2018-09-17T12:19:26.520Z,64.20
2018-09-17T12:21:54.974Z,65.00
2018-09-17T12:24:23.302Z,64.70
2018-09-17T12:26:51.659Z,63.70
2018-09-17T12:29:19.991Z,64.10
2018-09-17T12:31:48.342Z,62.70
2018-09-17T12:34:16.676Z,63.30
2018-09-17T12:36:45.048Z,62.40
2018-09-17T12:39:13.493Z,62.20
2018-09-17T12:41:41.764Z,61.80
2018-09-17T12:44:10.101Z,61.60
2018-09-17T12:46:38.410Z,62.20
2018-09-17T12:49:06.862Z,62.90
2018-09-17T12:51:35.193Z,63.60
2018-09-17T12:56:53.958Z,63.20
2018-09-17T12:59:22.275Z,63.20
2018-09-17T13:01:50.602Z,63.50
2018-09-17T13:04:18.911Z,62.70
2018-09-17T13:06:47.253Z,62.70
2018-09-17T13:09:15.596Z,62.00
2018-09-17T13:11:43.964Z,61.80
2018-09-17T13:14:12.261Z,61.00
2018-09-17T13:16:40.908Z,61.40
2018-09-17T13:19:10.983Z,60.90
2018-09-17T13:21:39.316Z,60.20
2018-09-17T13:24:08.299Z,59.80
2018-09-17T13:26:37.485Z,59.30
2018-09-17T13:29:08.694Z,59.40
2018-09-17T13:31:37.037Z,59.70
2018-09-17T13:34:05.331Z,59.10
2018-09-17T13:36:33.648Z,59.00
2018-09-17T13:39:02.003Z,58.70
2018-09-17T13:41:30.436Z,58.10
2018-09-17T13:43:58.819Z,57.80
2018-09-17T13:46:27.246Z,57.60
2018-09-17T13:48:55.570Z,57.60
2018-09-17T13:51:24.031Z,58.10
2018-09-17T13:53:52.371Z,57.70
2018-09-17T13:56:20.751Z,57.10
2018-09-17T13:58:49.198Z,55.90
2018-09-17T14:01:17.655Z,55.00
2018-09-17T14:03:46.004Z,55.20
2018-09-17T14:06:14.351Z,55.40
2018-09-17T14:08:42.693Z,55.00
2018-09-17T14:11:11.001Z,55.40
2018-09-17T14:13:39.374Z,55.60
2018-09-17T14:16:09.582Z,55.80
2018-09-17T14:18:38.661Z,56.20
2018-09-17T14:21:07.333Z,55.80
2018-09-17T14:23:35.779Z,55.90
2018-09-17T14:26:04.224Z,55.90
2018-09-17T14:28:32.610Z,56.10
2018-09-17T14:31:00.946Z,56.00
2018-09-17T14:33:34.722Z,55.60
2018-09-17T14:36:03.032Z,55.40
2018-09-17T14:38:31.459Z,55.10
2018-09-17T14:40:59.874Z,55.10
2018-09-17T14:43:28.216Z,55.80
2018-09-17T14:45:56.793Z,56.10
2018-09-17T14:48:25.097Z,56.10
2018-09-17T14:50:53.795Z,55.70
2018-09-17T14:53:22.326Z,57.30
2018-09-17T14:55:50.691Z,56.90
2018-09-17T14:58:19.222Z,57.80
2018-09-17T15:00:47.830Z,58.20
2018-09-17T15:03:16.358Z,57.90
2018-09-17T15:05:44.676Z,58.20
2018-09-17T15:08:13.795Z,57.40
2018-09-17T15:10:42.173Z,56.70
2018-09-17T15:13:10.630Z,56.80
2018-09-17T15:15:44.417Z,57.50
2018-09-17T15:18:13.121Z,57.80
2018-09-17T15:20:41.505Z,58.00
2018-09-17T15:23:09.924Z,58.10
2018-09-17T15:25:40.304Z,58.00
2018-09-17T15:28:08.772Z,58.40
2018-09-17T15:30:37.136Z,58.50
2018-09-17T15:33:05.496Z,59.70
2018-09-17T15:35:33.919Z,60.10
2018-09-17T15:38:02.335Z,60.60
2018-09-17T15:40:30.693Z,59.80
2018-09-17T15:42:59.060Z,62.10
2018-09-17T15:45:27.418Z,60.10
2018-09-17T15:47:55.783Z,60.00
2018-09-17T15:50:24.208Z,59.40
2018-09-17T15:52:52.533Z,59.30
2018-09-17T15:55:20.909Z,59.60
2018-09-17T15:57:49.250Z,59.90
2018-09-17T16:00:17.661Z,61.20
2018-09-17T16:02:46.112Z,59.70
2018-09-17T16:05:14.487Z,62.00
2018-09-17T16:07:43.465Z,62.50
2018-09-17T16:10:11.887Z,62.90
2018-09-17T16:12:40.232Z,61.00
2018-09-17T16:15:08.726Z,61.90
2018-09-17T16:17:37.028Z,63.00
2018-09-17T16:20:05.469Z,63.10
2018-09-17T16:22:33.775Z,62.60
2018-09-17T16:25:02.421Z,65.50
2018-09-17T16:27:30.765Z,66.10
2018-09-17T16:29:59.122Z,65.70
2018-09-17T16:33:30.792Z,69.30
2018-09-17T16:35:59.256Z,72.10
2018-09-17T16:38:27.603Z,72.30
2018-09-17T16:40:56.103Z,72.50
2018-09-17T16:43:24.376Z,72.20
2018-09-17T16:45:52.781Z,70.50
2018-09-17T16:48:21.164Z,71.60
2018-09-17T16:50:49.472Z,75.20
2018-09-17T16:53:17.958Z,75.40
2018-09-17T16:55:46.227Z,73.90
2018-09-17T16:58:15.565Z,74.60
2018-09-17T17:00:44.004Z,75.30
2018-09-17T17:03:12.314Z,75.70
2018-09-17T17:05:41.898Z,77.00
2018-09-17T17:08:10.218Z,77.30
2018-09-17T17:10:56.812Z,79.70
2018-09-17T17:13:25.127Z,79.50
2018-09-17T17:15:53.535Z,80.70
2018-09-17T17:18:22.375Z,81.60
2018-09-17T17:20:50.789Z,82.20
2018-09-17T17:23:19.140Z,82.60
2018-09-17T17:25:47.522Z,83.10
2018-09-17T17:28:16.036Z,83.50
2018-09-17T17:30:44.391Z,84.10
2018-09-17T17:33:12.928Z,85.50
2018-09-17T17:35:41.703Z,86.50
2018-09-17T17:38:10.211Z,87.10
2018-09-17T17:40:38.670Z,87.50
2018-09-17T17:43:07.002Z,87.50
2018-09-17T17:45:35.380Z,88.10
2018-09-17T17:48:04.140Z,89.00
2018-09-17T17:50:32.598Z,89.70
2018-09-17T17:53:01.984Z,89.90
2018-09-17T17:55:30.614Z,90.50
2018-09-17T17:57:59.058Z,91.00
2018-09-17T18:00:27.353Z,91.20
2018-09-17T18:02:55.728Z,91.30
2018-09-17T18:05:24.207Z,91.60
2018-09-17T18:07:52.647Z,92.70
2018-09-17T18:10:21.090Z,93.10
2018-09-17T18:12:49.644Z,93.40
2018-09-17T18:15:18.002Z,93.50
2018-09-17T18:17:46.404Z,94.00
2018-09-17T18:20:14.778Z,94.50
2018-09-17T18:22:43.228Z,95.20
2018-09-17T18:25:11.666Z,95.40
2018-09-17T18:27:40.110Z,96.30
2018-09-17T18:30:08.944Z,96.70
2018-09-17T18:32:37.299Z,97.00
2018-09-17T18:35:05.593Z,97.00
2018-09-17T18:37:34.080Z,97.00
2018-09-17T18:40:02.427Z,97.00
2018-09-17T18:42:30.846Z,97.00
2018-09-17T18:44:59.316Z,97.00
2018-09-17T18:47:27.793Z,97.00
2018-09-17T18:49:56.215Z,97.00
2018-09-17T18:52:24.535Z,97.00
2018-09-17T18:54:53.167Z,97.00
2018-09-17T18:57:21.713Z,97.00
2018-09-17T18:59:50.343Z,97.00
2018-09-17T19:02:18.877Z,97.00
2018-09-17T19:04:47.314Z,97.00
2018-09-17T19:07:15.935Z,97.00
2018-09-17T19:09:47.248Z,97.00
2018-09-17T19:12:16.556Z,97.00
2018-09-17T19:14:50.170Z,97.00
2018-09-17T19:17:23.802Z,97.00
2018-09-17T19:19:52.539Z,97.00
2018-09-17T19:22:26.511Z,97.00
2018-09-17T19:24:54.820Z,97.00
2018-09-17T19:29:32.008Z,97.00
2018-09-17T19:32:00.594Z,97.00
2018-09-17T19:34:29.090Z,97.00
2018-09-17T19:37:02.709Z,97.00
2018-09-17T19:39:36.511Z,97.00
2018-09-17T19:42:04.929Z,97.00
2018-09-17T19:44:34.290Z,97.00
2018-09-17T19:47:02.647Z,97.00
2018-09-17T19:49:31.047Z,97.00
2018-09-17T19:52:04.814Z,97.00
2018-09-17T19:54:33.336Z,97.00
2018-09-17T19:57:01.780Z,97.00
2018-09-17T19:59:35.671Z,97.00
2018-09-17T20:02:04.069Z,97.00
2018-09-17T20:04:37.782Z,97.00
2018-09-17T20:07:06.190Z,97.00
2018-09-17T20:09:34.561Z,97.00
2018-09-17T20:12:03.270Z,97.00
2018-09-17T20:14:31.794Z,97.00
2018-09-17T20:17:01.775Z,97.00
2018-09-17T20:19:30.137Z,97.00
2018-09-17T20:21:58.555Z,97.00
2018-09-17T20:24:28.090Z,97.00
2018-09-17T20:26:56.839Z,97.00
2018-09-17T20:29:25.750Z,97.00
2018-09-17T20:31:54.135Z,97.00
2018-09-17T20:34:22.481Z,97.00
2018-09-17T20:36:50.915Z,97.00
2018-09-17T20:39:19.486Z,97.00
2018-09-17T20:41:47.789Z,97.00
2018-09-17T20:46:55.210Z,97.00
2018-09-17T20:49:23.695Z,97.00
2018-09-17T20:51:52.003Z,97.00
2018-09-17T20:54:21.383Z,97.00
2018-09-17T20:56:49.810Z,97.00
2018-09-17T20:59:20.295Z,97.00
2018-09-17T21:01:51.835Z,97.00
2018-09-17T21:04:20.117Z,97.00
2018-09-17T21:06:48.503Z,97.00
2018-09-17T21:09:16.852Z,97.00
2018-09-17T21:11:45.142Z,97.00
2018-09-17T21:14:13.485Z,97.00
2018-09-17T21:16:41.820Z,97.00
2018-09-17T21:19:10.247Z,97.00
2018-09-17T21:21:38.587Z,97.00
2018-09-17T21:24:06.908Z,97.00
2018-09-17T21:26:35.228Z,97.00
2018-09-17T21:29:03.648Z,97.00
2018-09-17T21:31:31.997Z,97.00
2018-09-17T21:34:00.403Z,97.00
2018-09-17T21:36:28.728Z,97.00
2018-09-17T21:38:57.071Z,97.00
2018-09-17T21:41:25.406Z,97.00
2018-09-17T21:43:53.815Z,97.00
2018-09-17T21:46:22.158Z,97.00
2018-09-17T21:48:50.487Z,97.00
2018-09-17T21:51:18.830Z,97.00
2018-09-17T21:53:47.179Z,97.00
2018-09-17T21:56:16.379Z,97.00
2018-09-17T21:58:44.696Z,97.00
2018-09-17T22:01:17.263Z,97.00
2018-09-17T22:03:45.631Z,97.00
2018-09-17T22:06:13.936Z,97.00
2018-09-17T22:08:42.354Z,97.00
2018-09-17T22:11:11.210Z,97.00
2018-09-17T22:13:39.681Z,97.00
2018-09-17T22:16:08.119Z,97.00
2018-09-17T22:18:36.796Z,97.00
2018-09-17T22:21:05.113Z,97.00
2018-09-17T22:23:33.419Z,97.00
2018-09-17T22:26:01.736Z,97.00
2018-09-17T22:28:30.020Z,97.00
2018-09-17T22:30:58.358Z,97.00
2018-09-17T22:33:26.655Z,97.00
2018-09-17T22:35:54.952Z,97.00
2018-09-17T22:38:23.471Z,97.00
2018-09-17T22:40:52.043Z,97.00
2018-09-17T22:43:20.348Z,97.00
2018-09-17T22:45:48.705Z,97.00
2018-09-17T22:48:17.039Z,97.00
2018-09-17T22:50:45.424Z,97.00
2018-09-17T22:53:13.817Z,97.00
2018-09-17T22:55:42.219Z,97.00
2018-09-17T22:58:10.966Z,97.00
2018-09-17T23:00:39.298Z,97.00
2018-09-17T23:03:07.655Z,97.00
2018-09-17T23:05:35.984Z,97.00
2018-09-17T23:08:04.552Z,97.00
2018-09-17T23:10:32.964Z,97.00
2018-09-17T23:13:01.488Z,97.00
2018-09-17T23:15:29.870Z,97.00
2018-09-17T23:17:58.181Z,97.00
2018-09-17T23:20:26.836Z,97.00
2018-09-17T23:22:55.198Z,97.00
2018-09-17T23:25:23.526Z,97.00
2018-09-17T23:27:51.818Z,97.00
2018-09-17T23:30:20.182Z,97.00
2018-09-17T23:32:48.626Z,97.00
2018-09-17T23:35:16.972Z,97.00
2018-09-17T23:37:45.307Z,97.00
2018-09-17T23:40:13.920Z,97.00
2018-09-17T23:42:42.261Z,97.00
2018-09-17T23:45:10.646Z,97.00
2018-09-17T23:47:39.036Z,97.00
2018-09-17T23:50:07.453Z,97.00
2018-09-17T23:52:35.787Z,97.00
2018-09-17T23:55:04.235Z,97.00
2018-09-17T23:57:32.577Z,97.00
